Time;durP1;ratioP1;P1;durP2;ratioP2;P2;SDS_P1;SDS_P2;PMS_P1;PMS_P2;Temp;Humidity;BMP_temperature;BMP_pressure;BME280_temperature;BME280_humidity;BME280_pressure;Samples;Min_cycle;Max_cycle;Signal;HPM_P1;HPM_P2
2023/12/15 00:01:33;;;;;;;25.15;12.55;;;;;;;4.17;100.00;102262.03;5059592;28;20058;-68
2023/12/15 00:03:58;;;;;;;22.17;13.00;;;;;;;4.10;100.00;102271.13;5023546;28;20029;-68
2023/12/15 00:06:23;;;;;;;18.65;11.25;;;;;;;4.05;100.00;102278.63;5044591;28;20036;-68
2023/12/15 00:08:49;;;;;;;23.00;12.40;;;;;;;4.03;100.00;102282.78;5058910;28;20124;-68
2023/12/15 00:11:17;;;;;;;22.40;12.32;;;;;;;3.98;100.00;102283.41;5058035;28;20092;-68
2023/12/15 00:13:42;;;;;;;24.15;12.20;;;;;;;3.94;100.00;102284.13;5058537;28;20048;-68
2023/12/15 00:16:08;;;;;;;23.05;12.13;;;;;;;3.95;100.00;102288.41;5055954;28;20033;-68
2023/12/15 00:18:36;;;;;;;23.25;12.05;;;;;;;3.96;100.00;102290.16;5028330;28;20037;-68
2023/12/15 00:21:02;;;;;;;21.35;11.82;;;;;;;3.97;100.00;102287.66;5054230;28;20048;-68
2023/12/15 00:23:27;;;;;;;25.10;12.88;;;;;;;3.99;100.00;102287.72;5040966;28;20041;-68
2023/12/15 00:25:52;;;;;;;22.33;11.93;;;;;;;4.01;100.00;102281.88;5055337;28;20668;-68
2023/12/15 00:28:18;;;;;;;20.25;11.65;;;;;;;4.05;100.00;102278.63;5026834;28;20045;-68
2023/12/15 00:30:43;;;;;;;26.13;14.00;;;;;;;4.13;100.00;102285.75;5026445;28;20037;-68
2023/12/15 00:33:09;;;;;;;24.83;12.80;;;;;;;4.20;100.00;102285.19;5022819;28;20033;-68
2023/12/15 00:35:34;;;;;;;26.15;13.60;;;;;;;4.29;100.00;102285.59;5021836;28;20049;-69
2023/12/15 00:38:00;;;;;;;28.55;13.32;;;;;;;4.41;100.00;102288.66;5025299;28;20471;-68
2023/12/15 00:40:25;;;;;;;25.40;13.48;;;;;;;4.45;100.00;102278.56;5024173;28;20030;-68
2023/12/15 00:42:51;;;;;;;28.02;13.90;;;;;;;4.46;100.00;102288.00;5024385;28;20041;-68
2023/12/15 00:45:16;;;;;;;25.00;13.20;;;;;;;4.48;100.00;102288.94;5023900;28;20049;-68
2023/12/15 00:47:42;;;;;;;28.17;12.95;;;;;;;4.53;100.00;102289.16;5039514;28;20189;-68
2023/12/15 00:50:08;;;;;;;29.98;13.95;;;;;;;4.59;100.00;102284.28;5057215;28;20022;-68
2023/12/15 00:52:33;;;;;;;25.58;13.57;;;;;;;4.66;100.00;102297.38;5056392;28;20048;-68
2023/12/15 00:54:58;;;;;;;29.35;13.93;;;;;;;4.74;100.00;102295.13;5025214;28;20112;-68
2023/12/15 00:57:27;;;;;;;31.58;14.85;;;;;;;4.80;100.00;102297.03;5024292;28;20030;-68
2023/12/15 00:59:52;;;;;;;26.17;13.40;;;;;;;4.83;100.00;102303.16;5023153;28;20041;-67
2023/12/15 01:02:18;;;;;;;28.88;14.30;;;;;;;4.89;100.00;102299.97;5025436;28;20569;-68
2023/12/15 01:04:43;;;;;;;27.38;14.10;;;;;;;4.94;100.00;102307.03;5053573;28;20026;-68
2023/12/15 01:07:08;;;;;;;32.80;15.00;;;;;;;4.98;100.00;102313.13;5027012;28;20496;-68
2023/12/15 01:09:34;;;;;;;29.02;15.10;;;;;;;5.01;100.00;102308.13;5025944;28;20026;-68
2023/12/15 01:11:59;;;;;;;31.08;14.55;;;;;;;5.02;100.00;102310.75;5022035;28;20527;-68
2023/12/15 01:14:25;;;;;;;27.60;13.90;;;;;;;5.05;100.00;102317.66;5021342;28;20030;-68
2023/12/15 01:16:50;;;;;;;25.80;13.98;;;;;;;5.08;100.00;102320.34;5022983;28;20050;-69
2023/12/15 01:19:17;;;;;;;27.05;13.25;;;;;;;5.10;100.00;102327.28;5054805;28;20163;-68
2023/12/15 01:21:44;;;;;;;25.50;13.55;;;;;;;5.12;100.00;102330.78;5055846;28;20443;-70
2023/12/15 01:24:11;;;;;;;27.77;14.20;;;;;;;5.14;100.00;102335.97;5025179;28;20029;-68
2023/12/15 01:26:36;;;;;;;24.00;12.68;;;;;;;5.12;100.00;102335.91;5022013;28;20037;-68
2023/12/15 01:29:01;;;;;;;26.85;13.82;;;;;;;5.14;100.00;102343.66;5041645;28;20369;-68
2023/12/15 01:31:27;;;;;;;25.90;13.60;;;;;;;5.14;100.00;102346.22;5026095;28;20415;-68
2023/12/15 01:33:55;;;;;;;26.25;14.02;;;;;;;5.13;100.00;102341.94;5028671;28;20404;-69
2023/12/15 01:36:20;;;;;;;23.65;13.18;;;;;;;5.14;100.00;102361.59;5046045;28;20038;-69
2023/12/15 01:38:48;;;;;;;26.73;14.60;;;;;;;5.16;100.00;102367.69;5028721;28;20570;-68
2023/12/15 01:41:14;;;;;;;24.80;14.00;;;;;;;5.19;100.00;102375.44;5028160;28;20037;-68
2023/12/15 01:43:39;;;;;;;25.20;13.98;;;;;;;5.18;100.00;102384.84;5028591;28;20400;-68
2023/12/15 01:46:05;;;;;;;27.63;14.23;;;;;;;5.20;100.00;102377.22;5029232;28;20327;-68
2023/12/15 01:48:31;;;;;;;30.20;14.73;;;;;;;5.22;100.00;102379.00;5028148;28;20045;-68
2023/12/15 01:50:59;;;;;;;25.33;14.40;;;;;;;5.24;100.00;102384.22;5027987;28;20531;-68
2023/12/15 01:53:27;;;;;;;24.95;13.30;;;;;;;5.27;100.00;102380.91;5023559;28;20064;-68
2023/12/15 01:55:53;;;;;;;26.15;12.80;;;;;;;5.28;100.00;102386.06;5027003;28;20235;-68
2023/12/15 01:58:18;;;;;;;25.38;13.13;;;;;;;5.29;100.00;102381.81;5023460;28;20158;-68
2023/12/15 02:00:50;;;;;;;29.15;15.00;;;;;;;5.30;100.00;102374.19;5028717;28;20042;-68
2023/12/15 02:03:15;;;;;;;26.55;13.93;;;;;;;5.31;100.00;102381.06;5025390;28;20065;-68
2023/12/15 02:05:40;;;;;;;25.58;14.43;;;;;;;5.31;100.00;102381.06;5045128;28;20123;-68
2023/12/15 02:08:06;;;;;;;26.02;14.02;;;;;;;5.32;100.00;102377.69;5056546;28;20153;-68
2023/12/15 02:10:36;;;;;;;29.40;14.57;;;;;;;5.35;100.00;102371.81;5027443;28;20064;-68
2023/12/15 02:13:02;;;;;;;24.13;13.10;;;;;;;5.36;100.00;102379.56;5024192;28;20408;-68
2023/12/15 02:15:27;;;;;;;23.58;13.45;;;;;;;5.38;100.00;102388.19;5023165;28;20021;-68
2023/12/15 02:17:53;;;;;;;27.15;14.07;;;;;;;5.39;100.00;102386.50;5024910;28;20132;-68
2023/12/15 02:20:19;;;;;;;23.23;12.60;;;;;;;5.40;100.00;102385.69;5023695;28;20042;-69
2023/12/15 02:22:44;;;;;;;25.70;13.55;;;;;;;5.41;100.00;102389.97;5025618;28;20030;-68
2023/12/15 02:25:09;;;;;;;26.08;13.30;;;;;;;5.42;100.00;102396.88;5020583;28;20037;-69
2023/12/15 02:27:35;;;;;;;23.20;12.73;;;;;;;5.43;100.00;102396.91;5005846;28;20045;-69
2023/12/15 02:30:00;;;;;;;23.92;12.35;;;;;;;5.45;100.00;102392.75;5006048;28;20041;-69
2023/12/15 02:32:26;;;;;;;25.05;13.07;;;;;;;5.45;100.00;102394.44;5056839;28;20040;-68
2023/12/15 02:34:51;;;;;;;28.88;13.70;;;;;;;5.47;100.00;102393.66;5026920;28;20022;-68
2023/12/15 02:37:17;;;;;;;27.92;13.75;;;;;;;5.49;100.00;102402.28;5006198;28;20044;-68
2023/12/15 02:39:42;;;;;;;21.70;12.40;;;;;;;5.48;100.00;102402.25;5057672;28;20041;-68
2023/12/15 02:42:08;;;;;;;23.48;12.30;;;;;;;5.50;100.00;102400.59;5056030;28;20409;-68
2023/12/15 02:44:33;;;;;;;21.15;11.82;;;;;;;5.52;100.00;102394.69;5026197;28;20045;-68
2023/12/15 02:46:58;;;;;;;21.33;12.00;;;;;;;5.53;100.00;102404.16;5024524;28;20029;-69
2023/12/15 02:49:24;;;;;;;21.42;11.80;;;;;;;5.54;100.00;102402.47;5024225;28;20047;-68
2023/12/15 02:51:49;;;;;;;24.60;11.98;;;;;;;5.53;100.00;102404.16;5058593;28;20045;-68
2023/12/15 02:54:15;;;;;;;21.17;11.38;;;;;;;5.58;100.00;102410.31;5005819;28;20041;-68
2023/12/15 02:56:40;;;;;;;24.38;12.98;;;;;;;5.57;100.00;102405.16;5019065;28;20624;-68
2023/12/15 02:59:05;;;;;;;22.17;11.55;;;;;;;5.60;100.00;102416.41;5058665;28;20128;-68
2023/12/15 03:01:31;;;;;;;22.90;11.40;;;;;;;5.61;100.00;102418.13;5022582;28;20038;-68
2023/12/15 03:03:57;;;;;;;23.55;11.95;;;;;;;5.65;100.00;102416.56;5023813;28;20050;-68
2023/12/15 03:06:22;;;;;;;23.90;12.13;;;;;;;5.66;100.00;102423.47;5058670;28;20037;-69
2023/12/15 03:08:48;;;;;;;24.83;12.07;;;;;;;5.68;100.00;102415.00;5020007;28;20091;-68
2023/12/15 03:11:13;;;;;;;22.85;12.63;;;;;;;5.67;100.00;102415.81;5008643;28;20071;-68
2023/12/15 03:13:39;;;;;;;23.27;12.57;;;;;;;5.68;100.00;102411.56;5029462;28;20118;-68
2023/12/15 03:16:10;;;;;;;20.13;11.55;;;;;;;5.70;100.00;102409.91;5027208;28;20095;-68
2023/12/15 03:18:36;;;;;;;21.65;13.15;;;;;;;5.70;100.00;102413.34;5029854;28;20046;-68
2023/12/15 03:21:01;;;;;;;21.65;12.55;;;;;;;5.71;100.00;102420.25;5024806;28;20049;-67
2023/12/15 03:23:27;;;;;;;24.50;12.52;;;;;;;5.71;100.00;102416.81;5037515;28;20044;-68
2023/12/15 03:25:52;;;;;;;24.15;11.88;;;;;;;5.72;100.00;102408.28;5024985;28;20844;-68
2023/12/15 03:28:18;;;;;;;24.25;12.50;;;;;;;5.72;100.00;102418.56;5018368;28;20045;-68
2023/12/15 03:30:43;;;;;;;24.55;12.00;;;;;;;5.75;100.00;102421.25;5038334;28;20132;-69
2023/12/15 03:33:12;;;;;;;21.55;12.13;;;;;;;5.75;100.00;102426.38;5042209;28;20049;-68
2023/12/15 03:35:37;;;;;;;21.38;11.38;;;;;;;5.76;100.00;102425.53;5056697;28;20079;-68
2023/12/15 03:38:04;;;;;;;21.50;12.10;;;;;;;5.76;100.00;102422.97;5060139;28;20057;-69
2023/12/15 03:40:29;;;;;;;25.27;12.52;;;;;;;5.75;100.00;102426.38;5057389;28;20209;-68
2023/12/15 03:42:54;;;;;;;21.95;11.35;;;;;;;5.75;100.00;102432.34;5018931;28;20132;-68
2023/12/15 03:45:20;;;;;;;21.45;12.30;;;;;;;5.75;100.00;102431.50;5023205;28;20123;-69
2023/12/15 03:47:45;;;;;;;21.05;12.43;;;;;;;5.75;100.00;102439.19;5023145;28;20611;-68
2023/12/15 03:50:11;;;;;;;19.38;11.55;;;;;;;5.75;100.00;102441.75;5055965;28;20527;-68
2023/12/15 03:52:39;;;;;;;24.27;12.23;;;;;;;5.74;100.00;102433.19;5057314;28;20029;-68
2023/12/15 03:55:05;;;;;;;22.88;12.32;;;;;;;5.76;100.00;102438.34;5016493;28;20033;-68
2023/12/15 03:57:30;;;;;;;21.98;12.50;;;;;;;5.77;100.00;102446.13;5056822;28;20048;-68
2023/12/15 03:59:56;;;;;;;19.42;11.68;;;;;;;5.78;100.00;102452.16;5020484;28;20100;-68
2023/12/15 04:02:21;;;;;;;29.33;12.50;;;;;;;5.80;100.00;102458.19;5038813;28;20546;-68
2023/12/15 04:04:47;;;;;;;20.45;11.43;;;;;;;5.81;100.00;102459.06;5024587;28;20029;-69
2023/12/15 04:07:12;;;;;;;23.05;12.60;;;;;;;5.82;100.00;102451.41;5023938;28;20059;-69
2023/12/15 04:09:38;;;;;;;19.83;11.85;;;;;;;5.82;100.00;102447.97;5055655;28;20128;-68
2023/12/15 04:12:04;;;;;;;22.02;12.05;;;;;;;5.83;100.00;102455.75;5022776;28;20163;-68
2023/12/15 04:14:31;;;;;;;21.60;11.98;;;;;;;5.85;100.00;102471.19;5024860;28;20033;-68
2023/12/15 04:16:56;;;;;;;21.40;12.85;;;;;;;5.86;100.00;102473.81;5025687;28;20022;-69
2023/12/15 04:19:22;;;;;;;20.15;11.15;;;;;;;5.87;100.00;102477.28;5021080;28;20025;-68
2023/12/15 04:21:47;;;;;;;21.88;12.65;;;;;;;5.88;100.00;102471.31;5020982;28;20064;-69
2023/12/15 04:24:12;;;;;;;21.67;12.60;;;;;;;5.89;100.00;102480.75;5023121;28;20489;-68
2023/12/15 04:26:38;;;;;;;21.17;12.18;;;;;;;5.90;100.00;102483.41;5006786;28;20053;-68
2023/12/15 04:29:03;;;;;;;22.00;11.98;;;;;;;5.90;100.00;102488.53;5019817;28;20045;-68
2023/12/15 04:31:29;;;;;;;23.73;12.13;;;;;;;5.91;100.00;102499.66;5024592;28;20052;-68
2023/12/15 04:33:54;;;;;;;23.08;11.93;;;;;;;5.90;100.00;102497.91;5025057;28;20034;-69
2023/12/15 04:36:20;;;;;;;22.50;12.68;;;;;;;5.88;100.00;102497.84;5007935;28;20049;-68
2023/12/15 04:38:45;;;;;;;20.77;12.02;;;;;;;5.87;100.00;102503.81;5023658;28;20397;-69
2023/12/15 04:41:24;;;;;;;25.00;12.02;;;;;;;5.86;100.00;102509.75;5056503;28;20823;-68
2023/12/15 04:43:50;;;;;;;23.08;12.38;;;;;;;5.85;100.00;102513.13;5034854;28;20033;-68
2023/12/15 04:46:26;;;;;;;21.35;12.63;;;;;;;5.86;100.00;102514.88;5022826;28;20117;-68
2023/12/15 04:48:57;;;;;;;20.08;11.25;;;;;;;5.86;100.00;102517.44;5037165;28;20064;-69
2023/12/15 04:51:25;;;;;;;21.88;12.00;;;;;;;5.87;100.00;102515.75;5023912;28;20095;-68
2023/12/15 04:53:51;;;;;;;18.90;11.32;;;;;;;5.88;100.00;102520.94;5025766;28;20046;-69
2023/12/15 04:56:17;;;;;;;26.08;12.73;;;;;;;5.89;100.00;102524.38;5024052;28;20043;-68
2023/12/15 04:58:43;;;;;;;23.17;11.73;;;;;;;5.90;100.00;102536.41;5024722;28;20085;-68
2023/12/15 05:01:10;;;;;;;22.05;11.38;;;;;;;5.90;100.00;102528.72;5023032;28;20053;-68
2023/12/15 05:03:36;;;;;;;20.55;11.57;;;;;;;5.90;100.00;102526.16;5026544;28;20045;-68
2023/12/15 05:06:01;;;;;;;20.23;11.82;;;;;;;5.92;100.00;102529.63;5059251;28;20513;-68
2023/12/15 05:08:27;;;;;;;20.55;10.93;;;;;;;5.92;100.00;102532.19;5030793;28;20511;-68
2023/12/15 05:10:55;;;;;;;22.73;11.27;;;;;;;5.93;100.00;102527.16;5027244;28;20040;-68
2023/12/15 05:13:21;;;;;;;18.35;10.20;;;;;;;5.92;100.00;102519.38;5008510;28;20053;-68
2023/12/15 05:15:46;;;;;;;20.40;11.50;;;;;;;5.92;100.00;102522.81;5041711;28;20392;-68
2023/12/15 05:18:12;;;;;;;22.65;12.25;;;;;;;5.92;100.00;102524.50;5025677;28;20034;-68
2023/12/15 05:20:38;;;;;;;22.80;12.45;;;;;;;5.91;100.00;102535.56;5023832;28;20519;-68
2023/12/15 05:23:04;;;;;;;21.88;11.82;;;;;;;5.93;100.00;102534.84;5027170;28;20038;-68
2023/12/15 05:25:29;;;;;;;19.65;11.63;;;;;;;5.92;100.00;102529.63;5009096;28;20121;-68
2023/12/15 05:27:55;;;;;;;24.13;13.15;;;;;;;5.91;100.00;102536.47;5024555;28;20116;-68
2023/12/15 05:30:21;;;;;;;21.73;12.57;;;;;;;5.92;100.00;102538.22;5023729;28;20038;-68
2023/12/15 05:32:46;;;;;;;23.05;12.95;;;;;;;5.94;100.00;102549.41;5056829;28;20030;-69
2023/12/15 05:35:11;;;;;;;22.08;11.65;;;;;;;5.93;100.00;102547.69;5023204;28;20488;-68
2023/12/15 05:37:37;;;;;;;22.25;12.00;;;;;;;5.94;100.00;102546.84;5024545;28;20037;-68
2023/12/15 05:40:03;;;;;;;25.48;13.73;;;;;;;5.93;100.00;102541.66;5057917;28;20045;-69
2023/12/15 05:42:28;;;;;;;25.95;11.98;;;;;;;5.95;100.00;102547.72;5023567;28;20040;-69
2023/12/15 05:44:54;;;;;;;27.65;12.57;;;;;;;5.94;100.00;102549.41;5025508;28;20038;-68
2023/12/15 05:47:19;;;;;;;28.58;13.43;;;;;;;5.93;100.00;102551.94;5022753;28;20033;-68
2023/12/15 05:49:45;;;;;;;26.27;13.40;;;;;;;5.93;100.00;102541.66;5023002;28;20030;-68
2023/12/15 05:52:10;;;;;;;25.05;13.10;;;;;;;5.92;100.00;102551.03;5027532;28;20068;-68
2023/12/15 05:54:41;;;;;;;22.90;12.68;;;;;;;5.91;100.00;102556.97;5024516;28;20120;-69
2023/12/15 05:57:07;;;;;;;30.75;14.27;;;;;;;5.90;100.00;102554.38;5022282;28;20037;-68
2023/12/15 05:59:33;;;;;;;28.20;14.05;;;;;;;5.89;100.00;102555.19;5024280;28;20066;-69
2023/12/15 06:01:58;;;;;;;34.17;15.43;;;;;;;5.90;100.00;102556.94;5021958;28;20034;-69
2023/12/15 06:04:24;;;;;;;25.02;13.68;;;;;;;5.90;100.00;102562.97;5058554;28;20116;-69
2023/12/15 06:06:50;;;;;;;27.80;13.45;;;;;;;5.89;100.00;102563.75;5026651;28;20037;-69
2023/12/15 06:09:16;;;;;;;26.88;14.02;;;;;;;5.91;100.00;102574.06;5024112;28;20041;-68
2023/12/15 06:11:42;;;;;;;28.25;14.38;;;;;;;5.88;100.00;102572.25;5024136;28;20046;-68
2023/12/15 06:14:10;;;;;;;25.67;14.15;;;;;;;5.91;100.00;102585.22;5024021;28;20435;-68
2023/12/15 06:16:36;;;;;;;32.85;15.05;;;;;;;5.93;100.00;102586.19;5027061;28;20032;-68
2023/12/15 06:19:02;;;;;;;29.02;16.17;;;;;;;5.93;100.00;102591.31;5023947;28;20042;-68
2023/12/15 06:21:28;;;;;;;27.65;14.20;;;;;;;5.92;100.00;102586.97;5020476;28;20072;-68
2023/12/15 06:23:54;;;;;;;32.03;15.50;;;;;;;5.95;100.00;102588.78;5025706;28;20056;-68
2023/12/15 06:26:26;;;;;;;29.75;14.57;;;;;;;5.95;100.00;102586.22;5027333;28;20456;-67
2023/12/15 06:28:53;;;;;;;31.63;14.80;;;;;;;5.95;100.00;102581.97;5026232;28;20063;-68
2023/12/15 06:31:19;;;;;;;28.67;15.25;;;;;;;5.98;100.00;102588.91;5034281;28;20056;-68
2023/12/15 06:33:44;;;;;;;31.00;16.05;;;;;;;5.97;100.00;102589.72;5029171;28;20034;-68
2023/12/15 06:36:11;;;;;;;32.28;15.77;;;;;;;5.98;100.00;102589.78;5044308;28;20045;-67
2023/12/15 06:38:37;;;;;;;30.58;15.85;;;;;;;6.00;100.00;102595.84;5022785;28;20416;-67
2023/12/15 06:41:05;;;;;;;24.35;14.18;;;;;;;6.01;100.00;102596.72;5024168;28;20536;-68
2023/12/15 06:43:31;;;;;;;30.70;14.70;;;;;;;6.01;100.00;102597.59;5024032;28;20033;-68
2023/12/15 06:45:57;;;;;;;31.42;15.43;;;;;;;6.01;100.00;102605.31;5025966;28;20044;-68
2023/12/15 06:48:22;;;;;;;34.28;15.73;;;;;;;6.02;100.00;102607.03;5025555;28;20051;-68
2023/12/15 06:50:48;;;;;;;31.95;16.23;;;;;;;6.04;100.00;102608.00;5022391;28;20065;-68
2023/12/15 06:53:13;;;;;;;31.05;15.15;;;;;;;6.04;100.00;102610.56;5057032;28;20045;-68
2023/12/15 06:55:39;;;;;;;30.65;13.85;;;;;;;6.06;100.00;102616.63;5023517;28;20049;-68
2023/12/15 06:58:04;;;;;;;27.92;14.25;;;;;;;6.06;100.00;102608.91;5021268;28;20051;-70
2023/12/15 07:00:30;;;;;;;30.50;15.15;;;;;;;6.09;100.00;102616.75;5024662;28;20520;-69
2023/12/15 07:02:55;;;;;;;27.45;13.90;;;;;;;6.10;100.00;102615.06;5035982;28;20034;-69
2023/12/15 07:05:20;;;;;;;31.27;15.20;;;;;;;6.11;100.00;102620.22;5022670;28;20576;-68
2023/12/15 07:07:46;;;;;;;25.50;12.90;;;;;;;6.13;100.00;102628.91;5053995;28;20049;-68
2023/12/15 07:10:11;;;;;;;26.85;13.63;;;;;;;6.15;100.00;102634.94;5024229;28;20052;-68
2023/12/15 07:12:37;;;;;;;25.33;13.65;;;;;;;6.16;100.00;102634.16;5022947;28;20547;-68
2023/12/15 07:15:02;;;;;;;28.17;13.88;;;;;;;6.17;100.00;102638.44;5039169;28;20056;-69
2023/12/15 07:17:28;;;;;;;33.58;14.77;;;;;;;6.17;100.00;102641.00;5024679;28;20038;-68
2023/12/15 07:19:53;;;;;;;29.17;15.55;;;;;;;6.17;100.00;102643.59;5021776;28;20029;-69
2023/12/15 07:22:18;;;;;;;28.33;14.73;;;;;;;6.19;100.00;102653.94;5023501;28;20025;-69
2023/12/15 07:24:44;;;;;;;28.70;14.30;;;;;;;6.22;100.00;102662.63;5023208;28;20038;-68
2023/12/15 07:27:09;;;;;;;28.80;14.70;;;;;;;6.23;100.00;102666.94;5023196;28;20034;-68
2023/12/15 07:29:35;;;;;;;30.20;14.80;;;;;;;6.26;100.00;102673.88;5019783;28;20042;-69
2023/12/15 07:32:00;;;;;;;33.25;15.77;;;;;;;6.26;100.00;102676.44;5026209;28;20026;-69
2023/12/15 07:34:26;;;;;;;34.45;16.55;;;;;;;6.27;100.00;102681.66;5026405;28;20107;-68
2023/12/15 07:36:51;;;;;;;26.58;14.55;;;;;;;6.30;100.00;102684.34;5022496;28;20040;-67
2023/12/15 07:39:21;;;;;;;26.52;13.48;;;;;;;6.32;100.00;102681.81;5024335;28;20033;-68
2023/12/15 07:41:48;;;;;;;28.20;14.32;;;;;;;6.34;100.00;102687.91;5023042;28;20432;-67
2023/12/15 07:44:14;;;;;;;27.83;14.43;;;;;;;6.35;100.00;102687.09;5020589;28;20073;-67
2023/12/15 07:46:39;;;;;;;26.55;14.57;;;;;;;6.35;100.00;102681.94;5025179;28;20060;-67
2023/12/15 07:49:05;;;;;;;26.20;13.63;;;;;;;6.38;100.00;102688.94;5024497;28;20060;-68
2023/12/15 07:51:31;;;;;;;24.25;14.43;;;;;;;6.38;100.00;102683.78;5021224;28;20206;-67
2023/12/15 07:53:56;;;;;;;28.50;14.57;;;;;;;6.40;100.00;102687.28;5021209;28;20571;-67
2023/12/15 07:56:24;;;;;;;24.35;13.75;;;;;;;6.43;100.00;102693.41;5004440;28;20661;-68
2023/12/15 07:58:50;;;;;;;24.05;13.27;;;;;;;6.45;100.00;102698.59;5025233;28;20018;-68
2023/12/15 08:01:17;;;;;;;30.35;14.88;;;;;;;6.45;100.00;102704.63;5058054;28;20030;-68
2023/12/15 08:03:43;;;;;;;27.58;14.13;;;;;;;6.48;100.00;102711.56;5050970;28;20126;-67
2023/12/15 08:06:08;;;;;;;26.75;14.20;;;;;;;6.49;100.00;102714.22;5054877;28;20045;-68
2023/12/15 08:08:34;;;;;;;26.95;14.35;;;;;;;6.51;100.00;102706.53;5018202;28;20056;-67
2023/12/15 08:10:59;;;;;;;30.73;13.90;;;;;;;6.52;100.00;102701.47;5056878;28;20022;-68
2023/12/15 08:13:25;;;;;;;27.23;14.43;;;;;;;6.52;100.00;102709.19;5023431;28;20477;-66
2023/12/15 08:15:50;;;;;;;25.27;13.43;;;;;;;6.56;100.00;102715.28;5040000;28;20546;-68
2023/12/15 08:18:15;;;;;;;27.27;14.20;;;;;;;6.57;100.00;102714.50;5057236;28;20554;-67
2023/12/15 08:20:41;;;;;;;29.52;14.63;;;;;;;6.62;100.00;102721.56;5022821;28;20416;-67
2023/12/15 08:23:06;;;;;;;25.45;13.40;;;;;;;6.66;100.00;102720.00;5022364;28;20054;-68
2023/12/15 08:25:32;;;;;;;27.00;14.18;;;;;;;6.66;100.00;102722.56;5059007;28;20056;-67
2023/12/15 08:27:57;;;;;;;25.33;14.88;;;;;;;6.74;100.00;102729.75;5017506;28;20056;-68
2023/12/15 08:30:22;;;;;;;26.40;13.68;;;;;;;6.78;100.00;102736.75;5038343;28;20040;-66
2023/12/15 08:32:48;;;;;;;26.00;14.02;;;;;;;6.83;100.00;102731.78;5023597;28;20038;-65
2023/12/15 08:35:13;;;;;;;24.15;13.07;;;;;;;6.86;100.00;102729.34;5022494;28;20053;-65
2023/12/15 08:37:39;;;;;;;26.27;12.35;;;;;;;6.90;100.00;102742.38;5025647;28;20064;-65
2023/12/15 08:40:05;;;;;;;23.65;14.15;;;;;;;6.93;100.00;102751.88;5023936;28;20041;-65
2023/12/15 08:42:30;;;;;;;25.08;12.25;;;;;;;6.96;100.00;102759.72;5056890;28;20112;-65
2023/12/15 08:44:56;;;;;;;25.30;12.48;;;;;;;6.98;100.00;102772.63;5028257;28;20060;-65
2023/12/15 08:47:21;;;;;;;21.17;11.25;;;;;;;6.99;100.00;102772.69;5044318;28;20524;-65
2023/12/15 08:49:47;;;;;;;20.73;12.07;;;;;;;7.01;100.00;102776.19;5016749;28;20064;-65
2023/12/15 08:52:13;;;;;;;22.58;12.98;;;;;;;7.03;100.00;102771.97;5020430;28;20033;-65
2023/12/15 08:54:39;;;;;;;24.15;13.50;;;;;;;7.06;100.00;102771.25;5024017;28;20036;-65
2023/12/15 08:57:04;;;;;;;24.85;12.20;;;;;;;7.07;100.00;102780.69;5023201;28;20030;-66
2023/12/15 08:59:30;;;;;;;21.98;12.13;;;;;;;7.11;100.00;102782.56;5025213;28;20535;-66
2023/12/15 09:01:55;;;;;;;26.23;13.00;;;;;;;7.13;100.00;102794.66;5027332;28;20041;-65
2023/12/15 09:04:21;;;;;;;21.80;12.38;;;;;;;7.17;100.00;102798.25;5009560;28;20514;-65
2023/12/15 09:06:46;;;;;;;23.25;12.65;;;;;;;7.18;100.00;102798.31;5027765;28;20515;-65
2023/12/15 09:09:12;;;;;;;20.10;12.20;;;;;;;7.21;100.00;102801.00;5026506;28;20037;-66
2023/12/15 09:11:37;;;;;;;19.13;12.90;;;;;;;7.30;100.00;102809.06;5029577;28;20049;-66
2023/12/15 09:14:02;;;;;;;19.05;11.88;;;;;;;7.39;100.00;102808.50;5025620;28;20405;-65
2023/12/15 09:16:28;;;;;;;22.05;12.05;;;;;;;7.47;100.00;102814.84;5024610;28;20026;-65
2023/12/15 09:18:53;;;;;;;21.15;12.00;;;;;;;7.51;100.00;102821.84;5024172;28;20632;-65
2023/12/15 09:21:19;;;;;;;21.27;11.35;;;;;;;7.56;100.00;102832.31;5018626;28;20095;-66
2023/12/15 09:23:44;;;;;;;15.60;10.02;;;;;;;7.58;100.00;102834.13;5026197;28;20037;-65
2023/12/15 09:26:10;;;;;;;22.90;12.05;;;;;;;7.61;100.00;102843.63;5026459;28;20041;-65
2023/12/15 09:28:35;;;;;;;22.88;11.73;;;;;;;7.61;100.00;102847.09;5026979;28;20021;-66
2023/12/15 09:31:01;;;;;;;19.33;10.55;;;;;;;7.65;100.00;102848.97;5058028;28;20542;-65
2023/12/15 09:33:26;;;;;;;22.77;12.48;;;;;;;7.70;100.00;102856.84;5025587;28;20582;-66
2023/12/15 09:35:53;;;;;;;19.10;10.85;;;;;;;7.73;100.00;102860.41;5040974;28;20444;-66
2023/12/15 09:38:20;;;;;;;18.70;11.13;;;;;;;7.75;100.00;102861.34;5025963;28;20144;-67
2023/12/15 09:40:46;;;;;;;19.00;11.32;;;;;;;7.79;100.00;102860.63;5028297;28;20017;-65
2023/12/15 09:43:11;;;;;;;20.70;11.25;;;;;;;7.83;100.00;102859.06;5027972;28;20041;-66
2023/12/15 09:45:37;;;;;;;17.52;10.90;;;;;;;7.90;100.00;102861.91;5029319;28;20052;-66
2023/12/15 09:48:06;;;;;;;17.15;10.55;;;;;;;7.96;100.00;102871.53;5022204;28;20061;-66
2023/12/15 09:50:33;;;;;;;19.10;11.38;;;;;;;7.98;100.00;102868.19;5059346;28;20048;-69
2023/12/15 09:53:02;;;;;;;17.42;10.75;;;;;;;8.01;100.00;102870.03;5037881;28;20037;-69
2023/12/15 09:55:29;;;;;;;20.23;12.18;;;;;;;8.01;100.00;102880.31;5038821;28;20087;-67
2023/12/15 09:57:56;;;;;;;20.85;11.65;;;;;;;8.00;100.00;102874.28;5021865;28;20121;-67
2023/12/15 10:00:22;;;;;;;19.15;11.77;;;;;;;8.04;100.00;102888.13;5061004;28;20025;-67
2023/12/15 10:02:47;;;;;;;19.15;11.75;;;;;;;8.04;100.00;102889.84;5023105;28;20107;-67
2023/12/15 10:05:13;;;;;;;18.05;11.88;;;;;;;8.05;100.00;102889.00;5058281;28;20069;-67
2023/12/15 10:07:39;;;;;;;20.95;12.23;;;;;;;8.06;100.00;102901.97;5018951;28;20080;-67
2023/12/15 10:10:04;;;;;;;26.63;14.18;;;;;;;8.08;100.00;102905.44;5024560;28;20061;-66
2023/12/15 10:12:30;;;;;;;26.20;14.23;;;;;;;8.13;100.00;102903.91;5057679;28;20425;-66
2023/12/15 10:14:56;;;;;;;25.65;15.30;;;;;;;8.22;100.00;102901.66;5057270;28;20091;-66
2023/12/15 10:17:22;;;;;;;26.27;14.27;;;;;;;8.30;100.00;102900.25;5024201;28;20025;-66
2023/12/15 10:19:48;;;;;;;26.77;15.00;;;;;;;8.33;100.00;102892.63;5022899;28;20035;-66
2023/12/15 10:22:14;;;;;;;29.55;15.93;;;;;;;8.46;100.00;102899.06;5025695;28;20037;-69
2023/12/15 10:24:39;;;;;;;30.55;16.52;;;;;;;8.60;100.00;102902.13;5054400;28;20119;-67
2023/12/15 10:27:07;;;;;;;28.85;14.80;;;;;;;8.72;100.00;102911.16;5021604;28;20092;-67
2023/12/15 10:29:33;;;;;;;32.80;16.90;;;;;;;8.82;100.00;102908.03;5051832;28;20033;-67
2023/12/15 10:31:58;;;;;;;30.08;15.75;;;;;;;8.91;100.00;102912.59;5041056;28;20079;-67
2023/12/15 10:34:25;;;;;;;30.15;15.38;;;;;;;9.01;100.00;102917.25;5025492;28;20024;-66
2023/12/15 10:36:52;;;;;;;31.30;17.08;;;;;;;9.08;100.00;102920.06;5053842;28;20049;-67
2023/12/15 10:39:18;;;;;;;25.73;15.25;;;;;;;9.18;100.00;102923.81;5042904;28;20029;-66
2023/12/15 10:41:44;;;;;;;25.02;15.63;;;;;;;9.23;100.00;102919.66;5011003;28;20044;-66
2023/12/15 10:44:13;;;;;;;24.38;14.38;;;;;;;9.28;100.00;102931.03;5059013;28;20022;-67
2023/12/15 10:46:43;;;;;;;24.13;14.55;;;;;;;9.27;100.00;102933.53;5058405;28;20500;-66
2023/12/15 10:49:10;;;;;;;25.75;14.90;;;;;;;9.27;100.00;102926.69;5017315;28;20044;-66
2023/12/15 10:51:40;;;;;;;24.42;13.35;;;;;;;9.30;100.00;102928.47;5023852;28;20041;-66
2023/12/15 10:54:08;;;;;;;28.77;14.45;;;;;;;9.34;100.00;102926.06;5018196;28;20482;-67
2023/12/15 10:56:36;;;;;;;22.63;13.70;;;;;;;9.35;100.00;102921.75;5020289;28;20050;-67
2023/12/15 10:59:02;;;;;;;24.90;14.77;;;;;;;9.34;100.00;102917.44;5025299;28;20120;-66
2023/12/15 11:01:31;;;;;;;26.75;15.35;;;;;;;9.35;100.00;102921.75;5023142;28;20121;-66
2023/12/15 11:03:56;;;;;;;27.30;14.30;;;;;;;9.34;100.00;102923.47;5037913;28;20045;-66